Welcome to our Virtual Airline
Sign-in:

Flight DTM0085

  • Submitted By: Thomas Menzel
  • Departure Airport: Bowerman (KHQM)
  • Arrival Airport: Bowerman (KHQM)
  • Aircraft: ERICKSON S64 (N64MM)
  • Flight Time: 00.44.52
  • Date Submitted: 20/02/06
  • Route: STOP S16 AND GREYS HBR COMM HOSP
  • Status: Accepted
Flight Details
Gross Revenue:
(1 load / $ 0.00 per unit
$ 0.00
Fuel Cost:
(37.1946 fuel used @ 0 / unit)
$ 0.00

Additional Log Information:

View Log

[17:06] ----- Flight Opened -----
[17:06] Cigar Box - 1.1.4.0
[17:06] FS: Prepar3D V4
[17:06] FSUIPC: v5.152
[17:06] Flight Number: DTM0085
[17:06] FS Aircraft: Ec 135 H&S Design Stat_Med_N533ME
[17:06] FS Model: EC35
[17:06] FS Type: Eurocopter
[17:06] Departure: KHQM
[17:06] Arrival: KHQM
[17:06] Flight Level: 3000
[17:06] Flight Type: H
[17:06] Passengers: 1
[17:06] FOB: 1012 lbs
[17:06] Gate: 8 - KHQM
[17:06] NOTE: Parking Brake Ignored
[17:06] Crash Detection: Disabled
[17:06] Engines: 1 Turboprop
[17:06] NOTE: Boarding has started
[17:06] Engine 1: Started
[17:06] Light Data: Navigation ON
[17:06] Light Data: Beacon ON
[17:06] Light Data: Landing lights ON
[17:06] Light Data: Taxi lights ON
[17:06] Light Data: Strobe lights ON
[17:06] Light Data: Instrument lights ON
[17:06] Light Data: Recognition lights ON
[17:06] Light Data: Wing lights ON
[17:06] Light Data: Logo lights ON
[17:06] Light Data: Cabin lights ON
[17:06] Main Door Closed
[17:06] COM1: 122.70
[17:06] COM2: 127.80
[17:06] Transponder: 7000
[17:06] NAV1: 108.70
[17:06] NAV2: 116.80
[17:06] ADF1: 348.0
[17:06] ADF2: 240.0
[17:06] Navigation Mode: NAV
[17:06] Engine 1: Stopped
[17:06] Engine 1: Started
[17:08] Light Data: Landing lights OFF
[17:08] AGL: 39 ft
[17:08] AMSL: 52 ft
[17:08] NOTE: Taxi started
[17:09] NOTE: ----- TAKE OFF -----
[17:09] GS: 31 knots
[17:09] TAS: 33 knots
[17:09] IAS: 34 knots
[17:09] VS: 385 fpm
[17:09] FOB: 1007 lbs
[17:09] Heading: 39°
[17:09] Pitch: 13°
[17:09] Bank: 0°
[17:09] Aircraft Weight: 6540.75 lbs
[17:09] Nearest Airport: KHQM
[17:09] Distance: 0.58 miles
[17:09] Runway: ???
[17:09] Ground Surface: Forest
[17:09] Ground Condition: Normal
[17:09] NOTE: Weather Report
[17:09] Wind Heading: 80°
[17:09] Wind Speed: 4 knots
[17:09] OAT: 0° C
[17:09] TAT: 1° C
[17:09] Precipitation: None
[17:09] Dew Point: 0° C
[17:09] Visibility: 57 miles
[17:09] METAR: KHQM 061553Z AUTO 24013KT 5SM -RA BR OVC012 09/09 A3010 RMK AO2 SLP196 P0004 T00890089
[17:09] NOTE: Climb started
[17:09] View Mode: Virtual Cockpit
[17:17] Light Data: Landing lights ON
[17:17] AGL: 643 ft
[17:17] AMSL: 705 ft
[17:20] NOTE: ----- LANDED -----
[17:20] Landing Rate: -184.55 fpm
[17:20] GS: 0 knots
[17:20] TAS: 2 knots
[17:20] IAS: 2 knots
[17:20] VS: -190 fpm
[17:20] FOB: 988 lbs
[17:20] Heading: 27°
[17:20] Pitch: 2°
[17:20] Bank: 2°
[17:20] Aircraft Weight: 6521.78 lbs
[17:20] Nearest Airport: S16
[17:20] Distance: 0.03 miles
[17:20] Runway: ???
[17:20] Ground Surface: Forest
[17:20] Ground Condition: Normal
[17:20] NOTE: Weather Report
[17:20] Wind Heading: 61°
[17:20] Wind Speed: 4 knots
[17:20] OAT: 0° C
[17:20] TAT: 0° C
[17:20] Precipitation: None
[17:20] Dew Point: 0° C
[17:20] Visibility: 56 miles
[17:20] METAR: KHQM 061553Z AUTO 24013KT 5SM -RA BR OVC012 09/09 A3010 RMK AO2 SLP196 P0004 T00890089
[17:20] View Mode: Virtual Cockpit
[17:20] NOTE: Taxi started
[17:21] View Mode: Virtual Cockpit
[17:39] NOTE: ----- LANDED -----
[17:39] Landing Rate: -174.55 fpm
[17:39] GS: 0 knots
[17:39] TAS: 4 knots
[17:39] IAS: 4 knots
[17:39] VS: -151 fpm
[17:39] FOB: 954 lbs
[17:39] Heading: 56°
[17:39] Pitch: 0°
[17:39] Bank: 0°
[17:39] Aircraft Weight: 6487.65 lbs
[17:39] Nearest Airport: KHQM
[17:39] Distance: 3.76 miles
[17:39] Runway: ???
[17:39] Ground Surface: Concrete
[17:39] Ground Condition: Normal
[17:39] NOTE: Weather Report
[17:39] Wind Heading: 75°
[17:39] Wind Speed: 5 knots
[17:39] OAT: 1° C
[17:39] TAT: 1° C
[17:39] Precipitation: None
[17:39] Dew Point: 0° C
[17:39] Visibility: 57 miles
[17:39] METAR: KHQM 061553Z AUTO 24013KT 5SM -RA BR OVC012 09/09 A3010 RMK AO2 SLP196 P0004 T00890089
[17:39] View Mode: Spot Plane
[17:39] Light Data: Landing lights OFF
[17:41] Light Data: Landing lights ON
[17:41] AGL: 7 ft
[17:41] AMSL: 259 ft
[17:41] Light Data: Landing lights OFF
[17:41] AGL: 39 ft
[17:41] AMSL: 291 ft
[17:41] View Mode: Spot Plane
[17:43] Light Data: Landing lights ON
[17:43] AGL: 610 ft
[17:43] AMSL: 836 ft
[17:51] NOTE: ----- LANDED -----
[17:51] Landing Rate: -160.71 fpm
[17:51] GS: 0 knots
[17:51] TAS: 0 knots
[17:51] IAS: 0 knots
[17:51] VS: -160 fpm
[17:51] FOB: 931 lbs
[17:51] Heading: 161°
[17:51] Pitch: 0°
[17:51] Bank: 0°
[17:51] Aircraft Weight: 6465.58 lbs
[17:51] Nearest Airport: KHQM
[17:51] Distance: 0.45 miles
[17:51] Runway: ???
[17:51] Ground Surface: Forest
[17:51] Ground Condition: Normal
[17:51] NOTE: Weather Report
[17:51] Wind Heading: 70°
[17:51] Wind Speed: 5 knots
[17:51] OAT: 0° C
[17:51] TAT: 1° C
[17:51] Precipitation: None
[17:51] Dew Point: 0° C
[17:51] Visibility: 57 miles
[17:51] METAR: KHQM 061553Z AUTO 24013KT 5SM -RA BR OVC012 09/09 A3010 RMK AO2 SLP196 P0004 T00890089
[17:51] View Mode: Spot Plane
[17:51] Light Data: Landing lights OFF
[17:51] Gate: 8 - KHQM
[17:51] NOTE: Flight Completed
[17:51] FS Aircraft: Ec 135 H&S Design Stat_Med_N533ME
[17:51] FS Model: EC35
[17:51] FS Type: Eurocopter
[17:51] FOB: 930 lbs
[17:51] Fuel Used: 82 lbs
[17:51] Flight Time: 00:44:52
[17:51] Flight Time (Dawn): 00:00:00
[17:51] Flight Time (Day): 00:00:00
[17:51] Flight Time (Dusk): 00:44:52
[17:51] Flight Time (Night): 00:00:00
[17:51] Total Landings: 3
[17:51] MaxSim Rate: 1x
[17:51] Cigar Box - 1.1.4.0
[17:51] ----- Flight Closed -----

Comments

Commenter Comment
Thomas Menzel MEDEVAC

Route Map